Siegerland, Germany

08:49 PM CEST die 28o September, anno 2016 (GMT +0200)
Bergstraße | | Change Station

Elev 1354 ft 50.74 °N, 7.97 °E | Updated 1 minute ago

Clear
Serena
61.7 °F
Feels Like 61.7 °F
N
1.2
Ventus Variabilis Ventus from Inter Aquilonem et Zephyrus
Gusts 4.3 mph

Hodie
High -- | Low -- °F
--% Chance of Precip.
Yesterday
High -- | Low -- °F
Precip. -- in
Pressio 30.30 in
Visibilitas -9999.0 milia passuum
Clouds
Frigus in quo Ros apparet 55 °F
Umor 79%
Rainfall 0.00 in
Snow Depth Not available.
7:23 AM 7:11 PM
Waning Crescent, 5% visible
METAR EDGS 281820Z 23009KT 200V260 CAVOK 14/12 Q1026
Pressio 30.30 in
Visibilitas -9999.0 milia passuum
Clouds
Frigus in quo Ros apparet 55 °F
Umor 79%
Rainfall 0.00 in
Snow Depth Not available.
7:23 AM 7:11 PM
Waning Crescent, 5% visible
METAR EDGS 281820Z 23009KT 200V260 CAVOK 14/12 Q1026

10-Day Weather Forecast

×

Almanac

Astronomy

Sep. 28, 2016 Rise Set
Actual Time
Civil Twilight
Nautical Twilight
Astronomical Twilight
Moon
Length Of Visible Light
Length of Day
Tomorrow will be .
, % of the Moon is Illuminated

Today's Extremes

Country Highs Country Lows

Community

WunderPhotos

Upload Photos

1,942,297 photos uploaded!

WunderBlog® & News

Nearby

Air Quality

  Air Quality AQ Index Pollutant
Not available.

Snow Depth

Station Depth Elevation

Earthquake Activity

City Distance Mag. Time & Date
Minimum magnitude displayed is 2.5.

Coastal Water Temperatures

Locus Calor

Stations

Nearby Weather Stations

Station Location Temp Frigus Venti Frigus in quo Ros apparet Umor Ventus Precip. Elev Renovata Type